Terminal Aerodrome Forecast
Issued by NWS Tulsa, OK

Home | Current Version | Previous Version | Text Only | Print | Product List | Glossary On
Versions: 1 2 3 4 5 6 7 8 9 10 11 12
000
FTUS44 KTSA 252320
TAFTUL
TAF
KTUL 252320Z 2600/2624 15007KT P6SM FEW060 SCT150 BKN250
     FM260800 VRB05KT P6SM VCSH SCT040 BKN150
     FM260900 15005KT P6SM VCSH SCT015 BKN050 OVC100
     FM261400 34006KT P6SM -RA BKN015
     FM261800 34008KT P6SM BKN025=

USA.gov is the U.S. government's official web portal to all federal, state and local government web resources and services.